Time;durP1;ratioP1;P1;durP2;ratioP2;P2;SDS_P1;SDS_P2;PMS_P1;PMS_P2;Temp;Humidity;BMP_temperature;BMP_pressure;BME280_temperature;BME280_humidity;BME280_pressure;Samples;Min_cycle;Max_cycle;Signal;HPM_P1;HPM_P2
2021/07/22 00:01:49;;;;;;;8.90;6.65;;;;;;;;;;5013409;28;20032;-51
2021/07/22 00:04:15;;;;;;;7.75;6.30;;;;;;;;;;5013365;28;20029;-52
2021/07/22 00:06:41;;;;;;;7.05;5.93;;;;;;;;;;5013411;28;20470;-53
2021/07/22 00:09:07;;;;;;;8.25;6.53;;;;;;;;;;5013228;28;20022;-52
2021/07/22 00:11:33;;;;;;;8.10;6.80;;;;;;;;;;5013467;28;20030;-51
2021/07/22 00:13:59;;;;;;;9.93;6.82;;;;;;;;;;5013240;28;20120;-50
2021/07/22 00:16:25;;;;;;;7.50;6.10;;;;;;;;;;5013497;28;20022;-52
2021/07/22 00:18:51;;;;;;;10.13;7.05;;;;;;;;;;5013188;28;20022;-53
2021/07/22 00:21:17;;;;;;;8.35;6.60;;;;;;;;;;5013003;28;20030;-53
2021/07/22 00:23:42;;;;;;;8.38;6.63;;;;;;;;;;5013061;28;20026;-54
2021/07/22 00:26:08;;;;;;;8.63;6.65;;;;;;;;;;5013044;28;20386;-52
2021/07/22 00:28:34;;;;;;;10.23;6.97;;;;;;;;;;5012901;28;20026;-55
2021/07/22 00:31:00;;;;;;;9.07;7.18;;;;;;;;;;5012972;28;20018;-52
2021/07/22 00:33:26;;;;;;;8.38;6.72;;;;;;;;;;5012843;28;20042;-50
2021/07/22 00:35:53;;;;;;;7.55;6.47;;;;;;;;;;5012848;28;20026;-50
2021/07/22 00:38:19;;;;;;;9.02;7.10;;;;;;;;;;5012833;28;20033;-54
2021/07/22 00:40:45;;;;;;;8.80;7.20;;;24.90;83.40;;;;;;5013083;28;20418;-54
2021/07/22 00:43:11;;;;;;;7.45;6.30;;;;;;;;;;5012710;28;20076;-51
2021/07/22 00:45:38;;;;;;;9.70;7.20;;;;;;;;;;5012700;28;20026;-51
2021/07/22 00:48:04;;;;;;;8.18;6.53;;;;;;;;;;5012671;28;20042;-53
2021/07/22 00:50:30;;;;;;;8.63;6.95;;;;;;;;;;5012918;28;20034;-52
2021/07/22 00:52:56;;;;;;;8.65;6.97;;;;;;;;;;5012632;28;20030;-53
2021/07/22 00:55:24;;;;;;;7.93;6.40;;;24.70;85.30;;;;;;5012618;28;20026;-53
2021/07/22 00:57:50;;;;;;;9.98;6.85;;;;;;;;;;5012669;28;20084;-54
2021/07/22 01:00:16;;;;;;;8.15;6.45;;;;;;;;;;5012578;28;20030;-51
2021/07/22 01:02:42;;;;;;;10.30;6.30;;;;;;;;;;5012513;28;20040;-53
2021/07/22 01:05:08;;;;;;;8.52;6.50;;;;;;;;;;5012509;28;20022;-52
2021/07/22 01:07:34;;;;;;;8.40;6.50;;;;;;;;;;5012679;28;20030;-54
2021/07/22 01:10:00;;;;;;;10.10;6.75;;;;;;;;;;5012518;28;20462;-51
2021/07/22 01:12:26;;;;;;;7.95;6.18;;;;;;;;;;5012644;28;20371;-53
2021/07/22 01:14:52;;;;;;;8.60;6.50;;;;;;;;;;5012467;28;20072;-51
2021/07/22 01:17:42;;;;;;;7.72;6.57;;;24.70;85.80;;;;;;5012707;28;20022;-51
2021/07/22 01:20:17;;;;;;;7.65;6.45;;;24.70;79.30;;;;;;5001338;28;20033;-51
2021/07/22 01:22:44;;;;;;;8.23;6.75;;;;;;;;;;5012689;28;20397;-54
2021/07/22 01:25:10;;;;;;;8.48;6.40;;;24.70;82.90;;;;;;5012647;28;20092;-52
2021/07/22 01:27:37;;;;;;;8.82;6.32;;;24.70;82.20;;;;;;5012337;28;20104;-53
2021/07/22 01:30:03;;;;;;;7.13;6.15;;;24.60;84.00;;;;;;5012408;28;20014;-53
2021/07/22 01:32:29;;;;;;;9.65;6.57;;;;;;;;;;5012249;28;20037;-53
2021/07/22 01:34:55;;;;;;;7.38;6.03;;;;;;;;;;5012324;28;20481;-54
2021/07/22 01:37:21;;;;;;;9.15;6.47;;;;;;;;;;5012306;28;20212;-50
2021/07/22 01:39:47;;;;;;;7.53;6.30;;;;;;;;;;5012234;28;20022;-51
2021/07/22 01:42:13;;;;;;;8.45;6.28;;;;;;;;;;5012306;28;20030;-50
2021/07/22 01:44:39;;;;;;;9.38;6.18;;;;;;;;;;5012174;28;20022;-54
2021/07/22 01:47:05;;;;;;;7.07;5.65;;;;;;;;;;5012050;28;20064;-52
2021/07/22 01:49:31;;;;;;;7.13;6.43;;;;;;;;;;5012181;28;20022;-55
2021/07/22 01:51:57;;;;;;;7.40;6.03;;;;;;;;;;5012034;28;20118;-54
2021/07/22 01:54:23;;;;;;;9.70;6.57;;;;;;;;;;5012145;28;20489;-52
2021/07/22 01:56:49;;;;;;;6.53;5.75;;;;;;;;;;5014832;28;20029;-54
2021/07/22 01:59:15;;;;;;;7.93;6.03;;;;;;;;;;5015726;28;20204;-52
2021/07/22 02:01:41;;;;;;;9.15;6.80;;;;;;;;;;5015607;28;20018;-52
2021/07/22 02:04:07;;;;;;;6.90;5.90;;;;;;;;;;5015590;28;20568;-53
2021/07/22 02:06:33;;;;;;;7.72;6.28;;;;;;;;;;5015502;28;20026;-50
2021/07/22 02:08:59;;;;;;;7.88;6.30;;;;;;;;;;5015414;28;20037;-51
2021/07/22 02:11:25;;;;;;;8.27;6.20;;;;;;;;;;5015395;28;20451;-50
2021/07/22 02:13:51;;;;;;;9.48;6.20;;;;;;;;;;5015386;28;20041;-54
2021/07/22 02:16:17;;;;;;;6.90;5.88;;;;;;;;;;5015428;28;20041;-51
2021/07/22 02:18:43;;;;;;;6.82;5.43;;;;;;;;;;5015346;28;20427;-55
2021/07/22 02:21:09;;;;;;;6.18;5.40;;;;;;;;;;5015315;28;20509;-55
2021/07/22 02:23:35;;;;;;;6.43;5.82;;;;;;;;;;5015284;28;20387;-55
2021/07/22 02:26:07;;;;;;;6.97;5.68;;;24.40;79.50;;;;;;5015138;28;20391;-55
2021/07/22 02:28:34;;;;;;;6.47;5.38;;;;;;;;;;5015135;28;20044;-53
2021/07/22 02:31:00;;;;;;;6.82;6.10;;;;;;;;;;5015334;28;20433;-53
2021/07/22 02:33:26;;;;;;;7.00;5.97;;;;;;;;;;5014953;28;20506;-50
2021/07/22 02:35:52;;;;;;;5.97;5.32;;;;;;;;;;5015003;28;20026;-53
2021/07/22 02:38:18;;;;;;;6.70;5.57;;;;;;;;;;5015267;28;20355;-50
2021/07/22 02:40:44;;;;;;;7.20;5.75;;;;;;;;;;5014907;28;20026;-52
2021/07/22 02:43:11;;;;;;;7.05;6.10;;;;;;;;;;5014897;28;20026;-54
2021/07/22 02:45:37;;;;;;;8.13;5.88;;;;;;;;;;5014843;28;20036;-50
2021/07/22 02:48:03;;;;;;;7.72;6.03;;;;;;;;;;5014611;28;20038;-52
2021/07/22 02:50:29;;;;;;;8.15;5.70;;;;;;;;;;5014755;28;20368;-53
2021/07/22 02:52:55;;;;;;;7.88;5.78;;;;;;;;;;5014556;28;20036;-52
2021/07/22 02:55:21;;;;;;;8.25;6.05;;;;;;;;;;5014661;28;20391;-53
2021/07/22 02:57:47;;;;;;;7.75;5.60;;;;;;;;;;5014574;28;20022;-54
2021/07/22 03:00:14;;;;;;;7.45;6.07;;;;;;;;;;5014535;28;20033;-53
2021/07/22 03:02:39;;;;;;;6.53;5.57;;;;;;;;;;5014545;28;20072;-54
2021/07/22 03:05:06;;;;;;;6.78;6.00;;;;;;;;;;5014454;28;20478;-51
2021/07/22 03:07:31;;;;;;;7.05;5.35;;;;;;;;;;5013187;28;20482;-52
2021/07/22 03:09:58;;;;;;;6.95;5.60;;;;;;;;;;5014308;28;20029;-53
2021/07/22 03:12:24;;;;;;;6.93;5.85;;;;;;;;;;5014225;28;20069;-51
2021/07/22 03:14:50;;;;;;;8.23;5.68;;;;;;;;;;5014269;28;20105;-52
2021/07/22 03:17:16;;;;;;;6.07;5.20;;;;;;;;;;5014193;28;20554;-52
2021/07/22 03:19:42;;;;;;;7.88;5.57;;;;;;;;;;5014084;28;20080;-53
2021/07/22 03:22:08;;;;;;;6.70;5.63;;;;;;;;;;5014045;28;20025;-53
2021/07/22 03:24:33;;;;;;;8.77;5.63;;;;;;;;;;5014309;28;20030;-53
2021/07/22 03:26:59;;;;;;;6.15;5.43;;;;;;;;;;5013988;28;20057;-53
2021/07/22 03:29:25;;;;;;;6.25;5.07;;;;;;;;;;5014004;28;20386;-53
2021/07/22 03:31:51;;;;;;;6.60;5.00;;;;;;;;;;5013885;28;20037;-49
2021/07/22 03:34:18;;;;;;;5.90;5.18;;;;;;;;;;5013911;28;20033;-53
2021/07/22 03:36:44;;;;;;;7.53;5.78;;;;;;;;;;5014161;28;20033;-54
2021/07/22 03:39:11;;;;;;;6.57;5.50;;;;;;;;;;5014133;28;20041;-54
2021/07/22 03:41:38;;;;;;;6.43;5.82;;;;;;;;;;5014119;28;20363;-53
2021/07/22 03:44:04;;;;;;;6.90;5.35;;;;;;;;;;5013751;28;20022;-54
2021/07/22 03:46:32;;;;;;;6.82;5.32;;;24.50;86.80;;;;;;5013676;28;20088;-54
2021/07/22 03:48:58;;;;;;;6.68;5.22;;;24.40;83.80;;;;;;5013687;28;20022;-54
2021/07/22 03:51:24;;;;;;;5.70;5.00;;;;;;;;;;5013858;28;20080;-53
2021/07/22 03:53:50;;;;;;;8.88;5.57;;;;;;;;;;5013557;28;20371;-53
2021/07/22 03:56:16;;;;;;;6.57;5.65;;;;;;;;;;5013482;28;20033;-54
2021/07/22 03:58:42;;;;;;;7.70;5.70;;;;;;;;;;5013486;28;20026;-53
2021/07/22 04:01:08;;;;;;;6.13;5.53;;;;;;;;;;5013665;28;20497;-53
2021/07/22 04:03:36;;;;;;;5.35;4.85;;;;;;;;;;5013406;28;20478;-55
2021/07/22 04:06:02;;;;;;;7.38;5.65;;;;;;;;;;5013301;28;20025;-53
2021/07/22 04:08:28;;;;;;;6.05;5.25;;;;;;;;;;5013168;28;20095;-53
2021/07/22 04:10:53;;;;;;;7.03;5.40;;;;;;;;;;5013234;28;20104;-52
2021/07/22 04:13:19;;;;;;;6.07;5.40;;;;;;;;;;5013140;28;20513;-55
2021/07/22 04:15:45;;;;;;;6.75;5.20;;;;;;;;;;5013209;28;20496;-51
2021/07/22 04:18:11;;;;;;;7.75;5.88;;;;;;;;;;5012846;28;20486;-55
2021/07/22 04:20:37;;;;;;;6.70;5.72;;;;;;;;;;5013119;28;20552;-53
2021/07/22 04:23:03;;;;;;;6.60;5.45;;;;;;;;;;5013072;28;20502;-55
2021/07/22 04:25:29;;;;;;;6.68;5.05;;;;;;;;;;5013082;28;20175;-55
2021/07/22 04:27:55;;;;;;;5.35;4.85;;;;;;;;;;5013292;28;20026;-54
2021/07/22 04:30:21;;;;;;;5.50;4.68;;;;;;;;;;5013218;28;20077;-54
2021/07/22 04:32:47;;;;;;;6.90;5.22;;;;;;;;;;5012868;28;20026;-52
2021/07/22 04:35:14;;;;;;;6.63;5.05;;;24.30;84.50;;;;;;5012790;28;20056;-50
2021/07/22 04:37:40;;;;;;;5.55;4.90;;;;;;;;;;5013152;28;20014;-54
2021/07/22 04:40:06;;;;;;;6.05;4.93;;;24.30;84.10;;;;;;5012766;28;20033;-51
2021/07/22 04:42:33;;;;;;;6.25;5.32;;;24.40;87.30;;;;;;5013071;28;20029;-49
2021/07/22 04:44:59;;;;;;;5.43;4.53;;;;;;;;;;5012825;28;20028;-54
2021/07/22 04:47:25;;;;;;;5.63;4.57;;;;;;;;;;5012701;28;20048;-52
2021/07/22 04:49:51;;;;;;;5.93;5.28;;;;;;;;;;5012935;28;20021;-50
2021/07/22 04:52:18;;;;;;;6.13;5.10;;;;;;;;;;5012627;28;20056;-53
2021/07/22 04:54:44;;;;;;;5.70;4.80;;;;;;;;;;5012680;28;20084;-51
2021/07/22 04:57:10;;;;;;;5.82;5.22;;;;;;;;;;5012683;28;20033;-50
2021/07/22 04:59:36;;;;;;;6.60;5.07;;;;;;;;;;5012671;28;20026;-51
2021/07/22 05:02:02;;;;;;;6.90;4.78;;;;;;;;;;5012702;28;20475;-53
2021/07/22 05:04:28;;;;;;;4.95;4.45;;;;;;;;;;5012571;28;20101;-52
2021/07/22 05:06:54;;;;;;;4.88;4.35;;;;;;;;;;5012591;28;20029;-50
2021/07/22 05:09:19;;;;;;;5.90;4.97;;;;;;;;;;5012502;28;20040;-53
2021/07/22 05:11:45;;;;;;;6.05;4.88;;;;;;;;;;5012452;28;20041;-49
2021/07/22 05:14:11;;;;;;;6.05;4.80;;;;;;;;;;5012787;28;20022;-53
2021/07/22 05:16:37;;;;;;;6.55;4.95;;;;;;;;;;5012466;28;20033;-52
2021/07/22 05:19:03;;;;;;;6.15;4.40;;;;;;;;;;5012687;28;20037;-50
2021/07/22 05:21:29;;;;;;;5.55;4.50;;;;;;;;;;5012379;28;20030;-50
2021/07/22 05:23:55;;;;;;;5.82;5.15;;;;;;;;;;5012430;28;20022;-52
2021/07/22 05:26:21;;;;;;;5.28;4.75;;;;;;;;;;5012352;28;20033;-50
2021/07/22 05:28:47;;;;;;;4.90;4.40;;;;;;;;;;5012382;28;20018;-55
2021/07/22 05:31:13;;;;;;;5.18;4.53;;;;;;;;;;4996631;28;20500;-52
2021/07/22 05:33:40;;;;;;;5.03;4.53;;;24.20;88.00;;;;;;5016113;28;20188;-50
2021/07/22 05:36:09;;;;;;;4.97;4.47;;;24.20;87.90;;;;;;5016132;28;20097;-54
2021/07/22 05:38:37;;;;;;;5.15;4.65;;;24.20;87.60;;;;;;5016079;28;20030;-52
2021/07/22 05:41:04;;;;;;;4.85;4.22;;;24.20;87.60;;;;;;5016112;28;20029;-54
2021/07/22 05:43:30;;;;;;;6.88;4.97;;;24.30;84.60;;;;;;5016001;28;20104;-55
2021/07/22 05:45:57;;;;;;;6.40;5.18;;;24.20;85.80;;;;;;5016038;28;20033;-53
2021/07/22 05:48:23;;;;;;;5.50;5.00;;;;;;;;;;5015820;28;20053;-52
2021/07/22 05:50:49;;;;;;;5.22;4.72;;;;;;;;;;5016063;28;20032;-54
2021/07/22 05:53:15;;;;;;;4.85;4.38;;;;;;;;;;5016013;28;20427;-55
2021/07/22 05:55:41;;;;;;;6.10;4.90;;;;;;;;;;5015736;28;20029;-54
2021/07/22 05:58:07;;;;;;;6.97;5.00;;;;;;;;;;5015694;28;20024;-55
2021/07/22 06:00:33;;;;;;;6.82;5.47;;;;;;;;;;5015577;28;20108;-53
2021/07/22 06:02:59;;;;;;;5.28;4.78;;;;;;;;;;5015610;28;20097;-54
2021/07/22 06:05:25;;;;;;;6.35;5.03;;;;;;;;;;5015506;28;20152;-52
2021/07/22 06:07:51;;;;;;;5.38;4.78;;;;;;;;;;5015431;28;20034;-51
2021/07/22 06:10:17;;;;;;;6.00;4.85;;;;;;;;;;5015464;28;20038;-49
2021/07/22 06:12:43;;;;;;;5.03;4.50;;;;;;;;;;5015271;28;20052;-53
2021/07/22 06:15:12;;;;;;;6.47;4.40;;;24.30;81.50;;;;;;5015360;28;20025;-55
2021/07/22 06:17:38;;;;;;;5.47;4.60;;;;;;;;;;5015294;28;20026;-54
2021/07/22 06:20:05;;;;;;;6.88;4.70;;;24.00;88.30;;;;;;5015286;28;20521;-53
2021/07/22 06:22:31;;;;;;;7.22;5.20;;;;;;;;;;5015182;28;20022;-51
2021/07/22 06:24:57;;;;;;;6.85;5.20;;;;;;;;;;5015364;28;20376;-51
2021/07/22 06:27:23;;;;;;;10.45;5.10;;;;;;;;;;5015151;28;20026;-53
2021/07/22 06:29:49;;;;;;;9.73;5.28;;;;;;;;;;5015389;28;20037;-52
2021/07/22 06:32:15;;;;;;;7.22;4.82;;;;;;;;;;5015308;28;20034;-52
2021/07/22 06:34:42;;;;;;;6.78;5.22;;;;;;;;;;5015125;28;20375;-52
2021/07/22 06:37:08;;;;;;;6.75;4.70;;;;;;;;;;5014950;28;20494;-54
2021/07/22 06:39:35;;;;;;;8.00;5.25;;;;;;;;;;5015260;28;20026;-55
2021/07/22 06:42:01;;;;;;;6.60;5.25;;;;;;;;;;5014640;28;20037;-54
2021/07/22 06:44:30;;;;;;;6.10;5.07;;;24.30;82.90;;;;;;5014895;28;20061;-53
2021/07/22 06:46:56;;;;;;;6.07;4.93;;;;;;;;;;5014695;28;20518;-53
2021/07/22 06:49:22;;;;;;;6.53;5.00;;;;;;;;;;5014792;28;20036;-54
2021/07/22 06:51:48;;;;;;;6.70;4.63;;;;;;;;;;5014514;28;20033;-55
2021/07/22 06:54:14;;;;;;;5.85;4.90;;;;;;;;;;5014724;28;20474;-53
2021/07/22 06:56:41;;;;;;;8.05;5.00;;;;;;;;;;5014414;28;20108;-52
2021/07/22 06:59:07;;;;;;;9.27;4.97;;;;;;;;;;5014379;28;20034;-53
2021/07/22 07:01:32;;;;;;;6.75;4.28;;;;;;;;;;5014357;28;20030;-54
2021/07/22 07:03:58;;;;;;;6.65;4.97;;;;;;;;;;5014242;28;20037;-55
2021/07/22 07:06:24;;;;;;;8.43;4.68;;;;;;;;;;5014243;28;20088;-53
2021/07/22 07:08:50;;;;;;;5.97;5.25;;;;;;;;;;5014047;28;20032;-53
2021/07/22 07:11:16;;;;;;;6.30;4.47;;;;;;;;;;5014120;28;20022;-54
2021/07/22 07:13:42;;;;;;;31.30;5.25;;;;;;;;;;5014030;28;20088;-52
2021/07/22 07:16:08;;;;;;;6.20;4.88;;;;;;;;;;5014279;28;20029;-53
2021/07/22 07:18:34;;;;;;;6.05;4.88;;;;;;;;;;5014016;28;20532;-52
2021/07/22 07:21:04;;;;;;;5.00;4.50;;;24.20;82.40;;;;;;5014201;28;20064;-52
2021/07/22 07:23:30;;;;;;;5.82;5.03;;;24.20;86.90;;;;;;5013926;28;20061;-51
2021/07/22 07:25:56;;;;;;;4.85;4.38;;;;;;;;;;5013822;28;20034;-51
2021/07/22 07:28:22;;;;;;;5.75;4.10;;;;;;;;;;5013766;28;20026;-54
2021/07/22 07:30:48;;;;;;;6.75;4.38;;;;;;;;;;5013807;28;20057;-54
2021/07/22 07:33:14;;;;;;;5.35;4.72;;;;;;;;;;5013705;28;20069;-56
2021/07/22 07:35:40;;;;;;;6.18;4.45;;;;;;;;;;5013808;28;20057;-53
2021/07/22 07:38:06;;;;;;;9.18;4.95;;;;;;;;;;5013660;28;20029;-55
2021/07/22 07:40:33;;;;;;;5.60;5.10;;;;;;;;;;5013819;28;20056;-50
2021/07/22 07:42:59;;;;;;;6.07;4.30;;;;;;;;;;5013845;28;20080;-54
2021/07/22 07:45:25;;;;;;;5.35;4.82;;;;;;;;;;5013734;28;20415;-54
2021/07/22 07:47:51;;;;;;;6.68;4.72;;;;;;;;;;5013486;28;20041;-53
2021/07/22 07:50:17;;;;;;;4.55;4.15;;;;;;;;;;5013488;28;20053;-53
2021/07/22 07:52:43;;;;;;;5.35;4.60;;;;;;;;;;5013068;28;20038;-53
2021/07/22 07:55:10;;;;;;;5.20;4.65;;;;;;;;;;5013144;28;20025;-52
2021/07/22 07:57:36;;;;;;;5.35;4.85;;;;;;;;;;5013498;28;20034;-53
2021/07/22 08:00:02;;;;;;;4.95;4.45;;;;;;;;;;5013412;28;20028;-52
2021/07/22 08:02:28;;;;;;;5.50;4.72;;;;;;;;;;5013312;28;20482;-51
2021/07/22 08:04:56;;;;;;;6.35;5.18;;;;;;;;;;5013308;28;20037;-50
2021/07/22 08:07:22;;;;;;;5.10;4.32;;;;;;;;;;5013262;28;20022;-53
2021/07/22 08:09:48;;;;;;;5.15;4.40;;;;;;;;;;5013193;28;20026;-54
2021/07/22 08:12:18;;;;;;;5.90;5.03;;;24.30;87.60;;;;;;5013436;28;20041;-54
2021/07/22 08:14:44;;;;;;;4.63;4.17;;;;;;;;;;5013207;28;20041;-55
2021/07/22 08:17:15;;;;;;;7.22;4.97;;;24.40;88.40;;;;;;5013112;28;20058;-54
2021/07/22 08:19:41;;;;;;;6.07;4.95;;;;;;;;;;5013418;28;20025;-51
2021/07/22 08:22:56;;;;;;;6.15;5.03;;;24.50;82.90;;;;;;5013085;28;20433;-52
2021/07/22 08:25:23;;;;;;;5.30;4.78;;;;;;;;;;5013084;28;20018;-50
2021/07/22 08:27:49;;;;;;;5.07;4.57;;;;;;;;;;5013034;28;20065;-55
2021/07/22 08:30:15;;;;;;;6.45;5.43;;;;;;;;;;5012968;28;20084;-51
2021/07/22 08:32:42;;;;;;;5.03;4.63;;;;;;;;;;5013028;28;20120;-50
2021/07/22 08:35:08;;;;;;;6.07;4.93;;;;;;;;;;5012995;28;20551;-54
2021/07/22 08:37:35;;;;;;;5.68;5.07;;;;;;;;;;5012921;28;20030;-54
2021/07/22 08:40:03;;;;;;;6.00;4.82;;;;;;;;;;5013114;28;20442;-53
2021/07/22 08:42:33;;;;;;;6.20;4.88;;;24.20;87.00;;;;;;5013092;28;20371;-53
2021/07/22 08:44:59;;;;;;;6.72;4.43;;;;;;;;;;5013082;28;20076;-52
2021/07/22 08:47:25;;;;;;;5.65;4.88;;;;;;;;;;5012499;28;20029;-52
2021/07/22 08:49:51;;;;;;;5.00;4.50;;;24.30;88.00;;;;;;5012740;28;20057;-52
2021/07/22 08:52:18;;;;;;;6.43;4.60;;;;;;;;;;5012641;28;20061;-52
2021/07/22 08:54:44;;;;;;;6.65;4.70;;;;;;;;;;5012931;28;20030;-53
2021/07/22 08:57:10;;;;;;;5.72;4.72;;;24.50;87.70;;;;;;5012634;28;20474;-53
2021/07/22 08:59:37;;;;;;;5.00;4.50;;;;;;;;;;5012766;28;20030;-53
2021/07/22 09:02:04;;;;;;;5.70;4.60;;;24.40;88.60;;;;;;5012425;28;20029;-51
2021/07/22 09:04:30;;;;;;;6.85;4.95;;;;;;;;;;5013363;28;20030;-52
2021/07/22 09:06:57;;;;;;;5.28;4.32;;;24.60;88.50;;;;;;5016549;28;20021;-53
2021/07/22 09:09:23;;;;;;;5.53;4.72;;;;;;;;;;5016444;28;20033;-52
2021/07/22 09:12:00;;;;;;;6.00;4.35;;;24.50;80.80;;;;;;5016627;28;20044;-53
2021/07/22 09:14:31;;;;;;;5.70;4.82;;;24.60;82.60;;;;;;5016484;28;20032;-51
2021/07/22 09:16:57;;;;;;;5.45;4.70;;;;;;;;;;4998713;28;20474;-53
2021/07/22 09:19:32;;;;;;;5.38;4.82;;;24.80;80.90;;;;;;4998654;28;20532;-53
2021/07/22 09:21:58;;;;;;;4.85;4.25;;;;;;;;;;5016294;28;20076;-50
2021/07/22 09:24:24;;;;;;;5.15;4.32;;;;;;;;;;5016724;28;20035;-53
2021/07/22 09:26:51;;;;;;;5.70;4.47;;;;;;;;;;5016439;28;20382;-55
2021/07/22 09:29:17;;;;;;;4.57;4.18;;;24.80;87.00;;;;;;5016415;28;20062;-51
2021/07/22 09:31:44;;;;;;;5.22;4.60;;;;;;;;;;5016366;28;20030;-53
2021/07/22 09:34:22;;;;;;;4.38;3.95;;;25.00;80.30;;;;;;5016489;28;20482;-51
2021/07/22 09:36:48;;;;;;;6.88;4.65;;;;;;;;;;5016455;28;20029;-54
2021/07/22 09:39:18;;;;;;;4.60;3.95;;;25.00;81.20;;;;;;5016097;28;20033;-48
2021/07/22 09:41:45;;;;;;;4.53;3.85;;;;;;;;;;5016039;28;20045;-54
2021/07/22 09:44:31;;;;;;;5.05;4.15;;;25.00;87.00;;;;;;5015980;28;20081;-54
2021/07/22 09:46:58;;;;;;;5.38;4.60;;;25.10;82.60;;;;;;5015885;28;20033;-54
2021/07/22 09:49:38;;;;;;;4.68;4.28;;;25.10;80.00;;;;;;5015987;28;20056;-54
2021/07/22 09:52:10;;;;;;;6.20;3.92;;;25.10;85.80;;;;;;5015828;28;20060;-53
2021/07/22 09:54:38;;;;;;;6.30;4.30;;;25.00;86.70;;;;;;5015876;28;20076;-52
2021/07/22 09:57:16;;;;;;;4.38;3.97;;;25.10;85.80;;;;;;5015798;28;20022;-55
2021/07/22 09:59:44;;;;;;;6.35;4.32;;;25.10;85.10;;;;;;5015794;28;20029;-55
2021/07/22 10:02:19;;;;;;;4.78;4.18;;;25.00;85.60;;;;;;5015669;28;20026;-53
2021/07/22 10:04:54;;;;;;;6.78;4.15;;;25.00;85.70;;;;;;5015853;28;20061;-52
2021/07/22 10:07:22;;;;;;;4.53;4.13;;;25.00;86.00;;;;;;5015605;28;20036;-52
2021/07/22 10:09:53;;;;;;;4.63;4.22;;;25.10;79.40;;;;;;5015422;28;20045;-51
2021/07/22 10:12:20;;;;;;;4.28;3.90;;;25.10;85.80;;;;;;5015388;28;20038;-53
2021/07/22 10:14:53;;;;;;;4.50;4.00;;;25.10;87.20;;;;;;5015495;28;20049;-53
2021/07/22 10:17:22;;;;;;;6.47;4.10;;;25.20;86.50;;;;;;5014697;28;20029;-51
2021/07/22 10:19:49;;;;;;;4.43;4.03;;;25.20;85.70;;;;;;5015386;28;20037;-51
2021/07/22 10:22:15;;;;;;;5.07;3.90;;;;;;;;;;5015396;28;20034;-53
2021/07/22 10:24:41;;;;;;;4.25;3.80;;;;;;;;;;5015245;28;20026;-54
2021/07/22 10:27:07;;;;;;;5.18;3.70;;;;;;;;;;5015193;28;20022;-54
2021/07/22 10:29:35;;;;;;;4.22;3.70;;;25.10;84.40;;;;;;5015429;28;20033;-53
2021/07/22 10:32:01;;;;;;;4.43;4.03;;;25.30;86.10;;;;;;5015351;28;20029;-53
2021/07/22 10:34:28;;;;;;;3.70;3.40;;;;;;;;;;5015200;28;20029;-52
2021/07/22 10:36:54;;;;;;;5.05;3.47;;;25.30;83.70;;;;;;5015066;28;20034;-53
2021/07/22 10:39:57;;;;;;;4.20;3.45;;;25.30;79.80;;;;;;5014998;28;20033;-53
2021/07/22 10:42:46;;;;;;;4.47;3.92;;;25.30;80.20;;;;;;5015010;28;20105;-53
2021/07/22 10:45:21;;;;;;;3.85;3.53;;;25.30;79.80;;;;;;5015249;28;20246;-53
2021/07/22 10:48:06;;;;;;;4.25;3.85;;;25.30;79.80;;;;;;5014809;28;20030;-54
2021/07/22 10:50:38;;;;;;;5.95;4.10;;;25.30;79.90;;;;;;5014730;28;20152;-51
2021/07/22 10:53:04;;;;;;;4.43;4.00;;;;;;;;;;5014939;28;20038;-53
2021/07/22 10:55:42;;;;;;;5.57;3.75;;;25.30;79.70;;;;;;5014963;28;20031;-50
2021/07/22 10:58:29;;;;;;;4.35;3.92;;;25.40;79.60;;;;;;5014648;28;20072;-55
2021/07/22 11:00:56;;;;;;;3.40;3.10;;;;;;;;;;5014942;28;20387;-53
2021/07/22 11:06:03;;;;;;;4.47;3.83;;;25.40;84.60;;;;;;5014411;28;20026;-52
2021/07/22 11:08:29;;;;;;;4.35;3.88;;;;;;;;;;5014673;28;20025;-51
2021/07/22 11:11:02;;;;;;;4.00;3.60;;;25.40;79.90;;;;;;5014675;28;20038;-52
2021/07/22 11:13:37;;;;;;;4.30;3.90;;;25.30;79.60;;;;;;5014373;28;20471;-53
2021/07/22 11:16:04;;;;;;;5.07;3.65;;;25.50;86.10;;;;;;5014360;28;20022;-54
2021/07/22 11:18:55;;;;;;;6.30;3.58;;;25.30;78.90;;;;;;5014620;28;20382;-53
2021/07/22 11:21:29;;;;;;;3.60;3.30;;;25.30;78.50;;;;;;5014569;28;20482;-55
2021/07/22 11:23:58;;;;;;;3.92;3.47;;;25.70;86.80;;;;;;5014607;28;20038;-55
2021/07/22 11:26:43;;;;;;;4.35;3.58;;;25.70;79.70;;;;;;5014356;28;20037;-53
2021/07/22 11:29:11;;;;;;;3.67;3.38;;;25.50;86.50;;;;;;5013093;28;20073;-54
2021/07/22 11:31:41;;;;;;;3.75;3.45;;;25.50;86.40;;;;;;5013964;28;20053;-52
2021/07/22 11:34:08;;;;;;;3.47;3.17;;;;;;;;;;5014221;28;20125;-53
2021/07/22 11:36:34;;;;;;;3.83;3.42;;;;;;;;;;5013898;28;20055;-52
2021/07/22 11:43:17;;;;;;;4.35;3.95;;;25.60;80.00;;;;;;5014103;28;20520;-53
2021/07/22 11:45:44;;;;;;;3.40;3.10;;;;;;;;;;5013712;28;20030;-53
2021/07/22 11:48:23;;;;;;;3.72;3.28;;;25.40;81.10;;;;;;5013613;28;20394;-52
2021/07/22 11:51:06;;;;;;;3.28;2.97;;;25.50;79.30;;;;;;5013606;28;20025;-53
2021/07/22 11:53:33;;;;;;;3.60;3.30;;;;;;;;;;5013689;28;20041;-55
2021/07/22 11:56:20;;;;;;;4.85;3.40;;;25.60;86.00;;;;;;5013693;28;20026;-54
2021/07/22 11:58:48;;;;;;;3.67;3.30;;;25.50;85.60;;;;;;5013292;28;20033;-54
2021/07/22 12:01:14;;;;;;;3.78;3.20;;;;;;;;;;5013301;28;20026;-55
2021/07/22 12:03:44;;;;;;;3.80;3.40;;;25.60;86.10;;;;;;5013297;28;20018;-52
2021/07/22 12:06:10;;;;;;;3.90;3.00;;;;;;;;;;5013343;28;20022;-54
2021/07/22 12:08:36;;;;;;;3.65;3.35;;;;;;;;;;5013262;28;20505;-51
2021/07/22 12:21:21;;;;;;;3.42;3.13;;;25.70;85.50;;;;;;5013126;28;20172;-54
2021/07/22 12:23:47;;;;;;;3.47;3.17;;;;;;;;;;5013196;28;20065;-54
2021/07/22 12:26:16;;;;;;;4.07;3.60;;;;;;;;;;5013297;28;20096;-53
2021/07/22 12:28:42;;;;;;;3.10;2.90;;;;;;;;;;5013350;28;20148;-53
2021/07/22 12:31:19;;;;;;;3.25;2.95;;;25.80;79.40;;;;;;5012983;28;20029;-50
2021/07/22 12:33:59;;;;;;;3.45;3.15;;;25.80;86.10;;;;;;5012971;28;20038;-53
2021/07/22 12:36:25;;;;;;;3.38;3.08;;;;;;;;;;5013009;28;20021;-51
2021/07/22 12:39:11;;;;;;;3.40;3.10;;;25.80;80.50;;;;;;5013007;28;20026;-51
2021/07/22 12:41:37;;;;;;;3.13;2.92;;;;;;;;;;5012878;28;20030;-51
2021/07/22 12:44:03;;;;;;;3.72;3.42;;;;;;;;;;5012823;28;20033;-53
2021/07/22 12:46:32;;;;;;;3.40;3.10;;;25.60;79.40;;;;;;5012686;28;20393;-54
2021/07/22 12:48:59;;;;;;;3.40;3.10;;;;;;;;;;5013079;28;20497;-53
2021/07/22 12:51:25;;;;;;;3.30;3.03;;;;;;;;;;5012915;28;20034;-54
2021/07/22 12:53:51;;;;;;;3.58;3.03;;;25.80;82.20;;;;;;5012624;28;20092;-55
2021/07/22 12:56:17;;;;;;;3.65;3.35;;;;;;;;;;5012841;28;20097;-54
2021/07/22 12:58:46;;;;;;;2.92;2.70;;;25.90;85.30;;;;;;5012514;28;20486;-55
2021/07/22 13:01:20;;;;;;;3.53;2.80;;;25.90;85.90;;;;;;5012437;28;20029;-54
2021/07/22 13:03:48;;;;;;;3.13;2.88;;;26.00;86.10;;;;;;5012576;28;20497;-54
2021/07/22 13:06:15;;;;;;;3.22;2.92;;;25.90;86.30;;;;;;5012586;28;20033;-52
2021/07/22 13:08:41;;;;;;;2.92;2.72;;;;;;;;;;5012805;28;20053;-54
2021/07/22 13:11:10;;;;;;;3.35;3.10;;;25.80;85.30;;;;;;5012568;28;20465;-54
2021/07/22 13:13:37;;;;;;;2.88;2.67;;;25.90;86.20;;;;;;5012736;28;20034;-51
2021/07/22 13:16:07;;;;;;;5.95;2.95;;;25.80;85.90;;;;;;5012537;28;20029;-53
2021/07/22 13:18:33;;;;;;;2.85;2.65;;;;;;;;;;5012768;28;20053;-55
2021/07/22 13:21:00;;;;;;;3.33;3.03;;;25.90;84.10;;;;;;5012514;28;20072;-53
2021/07/22 13:23:26;;;;;;;3.00;2.80;;;;;;;;;;5012395;28;20498;-54
2021/07/22 13:25:52;;;;;;;3.13;2.85;;;;;;;;;;5012732;28;20421;-54
2021/07/22 13:28:18;;;;;;;2.83;2.60;;;;;;;;;;5012429;28;20153;-55
2021/07/22 13:30:45;;;;;;;3.20;2.90;;;;;;;;;;5012328;28;20470;-52
2021/07/22 13:33:11;;;;;;;2.53;2.33;;;;;;;;;;5012259;28;20076;-54
2021/07/22 13:35:37;;;;;;;3.45;3.10;;;;;;;;;;5012254;28;20073;-55
2021/07/22 13:38:05;;;;;;;3.10;2.80;;;26.00;86.40;;;;;;5012358;28;20478;-53
2021/07/22 13:40:32;;;;;;;3.20;2.90;;;;;;;;;;5012295;28;20403;-54
2021/07/22 13:43:01;;;;;;;4.15;3.15;;;;;;;;;;5012250;28;20036;-54
2021/07/22 13:45:29;;;;;;;3.97;2.97;;;26.00;85.40;;;;;;5012151;28;20030;-51
2021/07/22 13:47:55;;;;;;;3.47;3.17;;;;;;;;;;5012038;28;20494;-55
2021/07/22 13:50:21;;;;;;;3.50;3.00;;;;;;;;;;5012198;28;20030;-54
2021/07/22 13:52:47;;;;;;;3.30;3.00;;;;;;;;;;5014729;28;20041;-55
2021/07/22 13:55:13;;;;;;;2.88;2.67;;;;;;;;;;5015737;28;20451;-55
2021/07/22 13:57:39;;;;;;;2.88;2.67;;;;;;;;;;5015621;28;20081;-54
2021/07/22 14:00:07;;;;;;;3.47;2.95;;;26.10;85.20;;;;;;5015778;28;20097;-55
2021/07/22 14:02:33;;;;;;;3.08;2.60;;;;;;;;;;4998118;28;20471;-54
2021/07/22 14:04:59;;;;;;;3.28;3.08;;;;;;;;;;5015678;28;20096;-54
2021/07/22 14:07:25;;;;;;;3.08;2.85;;;;;;;;;;5015658;28;20026;-55
2021/07/22 14:09:51;;;;;;;3.65;3.08;;;;;;;;;;5015531;28;20033;-55
2021/07/22 14:12:17;;;;;;;3.47;3.17;;;;;;;;;;5015449;28;20034;-55
2021/07/22 14:14:43;;;;;;;2.88;2.67;;;;;;;;;;5015384;28;20532;-53
2021/07/22 14:17:09;;;;;;;3.22;2.92;;;;;;;;;;5015387;28;20022;-55
2021/07/22 14:19:35;;;;;;;2.88;2.55;;;;;;;;;;5015296;28;20026;-56
2021/07/22 14:22:01;;;;;;;2.97;2.70;;;;;;;;;;5015535;28;20364;-55
2021/07/22 14:24:28;;;;;;;3.75;2.80;;;;;;;;;;5015273;28;20398;-54
2021/07/22 14:26:55;;;;;;;3.00;2.42;;;;;;;;;;5015176;28;20381;-49